sensor_id;sensor_type;location;lat;lon;timestamp;P1;durP1;ratioP1;P2;durP2;ratioP2
5010;SDS011;2524;54.364;10.072;2024-03-29T00:02:11;4.10;;;3.90;;
5010;SDS011;2524;54.364;10.072;2024-03-29T00:04:37;4.17;;;3.87;;
5010;SDS011;2524;54.364;10.072;2024-03-29T00:07:03;3.90;;;3.70;;
5010;SDS011;2524;54.364;10.072;2024-03-29T00:09:29;2.90;;;2.80;;
5010;SDS011;2524;54.364;10.072;2024-03-29T00:11:55;4.67;;;4.30;;
5010;SDS011;2524;54.364;10.072;2024-03-29T00:14:21;4.20;;;3.90;;
5010;SDS011;2524;54.364;10.072;2024-03-29T00:16:47;4.33;;;3.93;;
5010;SDS011;2524;54.364;10.072;2024-03-29T00:19:13;4.70;;;3.40;;
5010;SDS011;2524;54.364;10.072;2024-03-29T00:21:39;4.63;;;3.63;;
5010;SDS011;2524;54.364;10.072;2024-03-29T00:24:05;5.90;;;3.40;;
5010;SDS011;2524;54.364;10.072;2024-03-29T00:26:31;3.90;;;3.60;;
5010;SDS011;2524;54.364;10.072;2024-03-29T00:28:57;3.80;;;3.50;;
5010;SDS011;2524;54.364;10.072;2024-03-29T00:31:23;2.73;;;2.53;;
5010;SDS011;2524;54.364;10.072;2024-03-29T00:33:49;5.97;;;3.47;;
5010;SDS011;2524;54.364;10.072;2024-03-29T00:36:15;3.27;;;3.07;;
5010;SDS011;2524;54.364;10.072;2024-03-29T00:38:41;3.40;;;3.10;;
5010;SDS011;2524;54.364;10.072;2024-03-29T00:41:07;3.63;;;3.43;;
5010;SDS011;2524;54.364;10.072;2024-03-29T00:43:33;3.10;;;2.90;;
5010;SDS011;2524;54.364;10.072;2024-03-29T00:45:59;5.47;;;3.77;;
5010;SDS011;2524;54.364;10.072;2024-03-29T00:48:25;3.20;;;3.00;;
5010;SDS011;2524;54.364;10.072;2024-03-29T00:50:51;2.60;;;2.40;;
5010;SDS011;2524;54.364;10.072;2024-03-29T00:53:17;4.47;;;2.97;;
5010;SDS011;2524;54.364;10.072;2024-03-29T00:55:43;3.00;;;2.80;;
5010;SDS011;2524;54.364;10.072;2024-03-29T00:58:09;2.47;;;2.37;;
5010;SDS011;2524;54.364;10.072;2024-03-29T01:00:36;2.40;;;2.30;;
5010;SDS011;2524;54.364;10.072;2024-03-29T01:03:01;2.90;;;2.70;;
5010;SDS011;2524;54.364;10.072;2024-03-29T01:05:28;3.80;;;3.50;;
5010;SDS011;2524;54.364;10.072;2024-03-29T01:07:54;2.73;;;2.53;;
5010;SDS011;2524;54.364;10.072;2024-03-29T01:10:19;3.20;;;2.93;;
5010;SDS011;2524;54.364;10.072;2024-03-29T01:12:48;2.50;;;2.40;;
5010;SDS011;2524;54.364;10.072;2024-03-29T01:15:14;2.77;;;2.57;;
5010;SDS011;2524;54.364;10.072;2024-03-29T01:17:40;2.00;;;1.90;;
5010;SDS011;2524;54.364;10.072;2024-03-29T01:20:06;2.20;;;2.07;;
5010;SDS011;2524;54.364;10.072;2024-03-29T01:22:33;1.80;;;1.80;;
5010;SDS011;2524;54.364;10.072;2024-03-29T01:24:59;4.60;;;2.30;;
5010;SDS011;2524;54.364;10.072;2024-03-29T01:27:26;1.70;;;1.70;;
5010;SDS011;2524;54.364;10.072;2024-03-29T01:29:52;1.60;;;1.50;;
5010;SDS011;2524;54.364;10.072;2024-03-29T01:32:18;2.57;;;2.47;;
5010;SDS011;2524;54.364;10.072;2024-03-29T01:34:44;2.53;;;2.30;;
5010;SDS011;2524;54.364;10.072;2024-03-29T01:37:10;2.20;;;2.00;;
5010;SDS011;2524;54.364;10.072;2024-03-29T01:39:36;2.67;;;2.47;;
5010;SDS011;2524;54.364;10.072;2024-03-29T01:42:02;1.97;;;1.77;;
5010;SDS011;2524;54.364;10.072;2024-03-29T01:44:28;3.67;;;2.43;;
5010;SDS011;2524;54.364;10.072;2024-03-29T01:46:54;2.10;;;2.00;;
5010;SDS011;2524;54.364;10.072;2024-03-29T01:49:20;1.83;;;1.83;;
5010;SDS011;2524;54.364;10.072;2024-03-29T01:51:46;3.80;;;2.10;;
5010;SDS011;2524;54.364;10.072;2024-03-29T01:54:12;2.53;;;2.33;;
5010;SDS011;2524;54.364;10.072;2024-03-29T01:56:39;2.33;;;2.10;;
5010;SDS011;2524;54.364;10.072;2024-03-29T01:59:07;2.20;;;2.10;;
5010;SDS011;2524;54.364;10.072;2024-03-29T02:01:35;2.40;;;2.20;;
5010;SDS011;2524;54.364;10.072;2024-03-29T02:04:02;2.40;;;1.70;;
5010;SDS011;2524;54.364;10.072;2024-03-29T02:06:28;1.50;;;1.50;;
5010;SDS011;2524;54.364;10.072;2024-03-29T02:08:54;2.20;;;2.10;;
5010;SDS011;2524;54.364;10.072;2024-03-29T02:11:21;2.10;;;2.00;;
5010;SDS011;2524;54.364;10.072;2024-03-29T02:13:47;1.87;;;1.77;;
5010;SDS011;2524;54.364;10.072;2024-03-29T02:16:14;5.83;;;2.73;;
5010;SDS011;2524;54.364;10.072;2024-03-29T02:18:40;2.83;;;1.80;;
5010;SDS011;2524;54.364;10.072;2024-03-29T02:21:06;2.03;;;1.93;;
5010;SDS011;2524;54.364;10.072;2024-03-29T02:23:32;2.57;;;2.37;;
5010;SDS011;2524;54.364;10.072;2024-03-29T02:26:01;2.20;;;2.20;;
5010;SDS011;2524;54.364;10.072;2024-03-29T02:28:28;2.10;;;2.00;;
5010;SDS011;2524;54.364;10.072;2024-03-29T02:30:54;2.03;;;1.93;;
5010;SDS011;2524;54.364;10.072;2024-03-29T02:33:20;2.30;;;1.93;;
5010;SDS011;2524;54.364;10.072;2024-03-29T02:35:46;2.00;;;1.90;;
5010;SDS011;2524;54.364;10.072;2024-03-29T02:38:12;1.70;;;1.70;;
5010;SDS011;2524;54.364;10.072;2024-03-29T02:40:38;2.00;;;1.90;;
5010;SDS011;2524;54.364;10.072;2024-03-29T02:43:05;3.23;;;2.33;;
5010;SDS011;2524;54.364;10.072;2024-03-29T02:45:30;2.37;;;2.27;;
5010;SDS011;2524;54.364;10.072;2024-03-29T02:47:56;3.43;;;2.10;;
5010;SDS011;2524;54.364;10.072;2024-03-29T02:50:22;3.53;;;2.30;;
5010;SDS011;2524;54.364;10.072;2024-03-29T02:52:48;2.03;;;1.90;;
5010;SDS011;2524;54.364;10.072;2024-03-29T02:55:14;2.73;;;2.53;;
5010;SDS011;2524;54.364;10.072;2024-03-29T02:57:40;1.97;;;1.87;;
5010;SDS011;2524;54.364;10.072;2024-03-29T03:00:07;1.87;;;1.77;;
5010;SDS011;2524;54.364;10.072;2024-03-29T03:02:37;2.20;;;2.10;;
5010;SDS011;2524;54.364;10.072;2024-03-29T03:05:04;3.57;;;2.50;;
5010;SDS011;2524;54.364;10.072;2024-03-29T03:07:30;2.77;;;2.07;;
5010;SDS011;2524;54.364;10.072;2024-03-29T03:10:14;2.10;;;2.00;;
5010;SDS011;2524;54.364;10.072;2024-03-29T03:12:59;1.97;;;1.87;;
5010;SDS011;2524;54.364;10.072;2024-03-29T03:15:25;1.80;;;1.80;;
5010;SDS011;2524;54.364;10.072;2024-03-29T03:17:51;2.70;;;2.10;;
5010;SDS011;2524;54.364;10.072;2024-03-29T03:20:17;1.90;;;1.80;;
5010;SDS011;2524;54.364;10.072;2024-03-29T03:22:44;2.10;;;1.90;;
5010;SDS011;2524;54.364;10.072;2024-03-29T03:25:10;1.87;;;1.67;;
5010;SDS011;2524;54.364;10.072;2024-03-29T03:27:36;1.67;;;1.57;;
5010;SDS011;2524;54.364;10.072;2024-03-29T03:30:02;4.10;;;1.90;;
5010;SDS011;2524;54.364;10.072;2024-03-29T03:32:28;3.20;;;1.87;;
5010;SDS011;2524;54.364;10.072;2024-03-29T03:34:54;2.00;;;1.80;;
5010;SDS011;2524;54.364;10.072;2024-03-29T03:37:20;2.50;;;1.80;;
5010;SDS011;2524;54.364;10.072;2024-03-29T03:39:46;1.67;;;1.57;;
5010;SDS011;2524;54.364;10.072;2024-03-29T03:42:12;1.43;;;1.40;;
5010;SDS011;2524;54.364;10.072;2024-03-29T03:44:38;1.50;;;1.40;;
5010;SDS011;2524;54.364;10.072;2024-03-29T03:47:04;1.60;;;1.50;;
5010;SDS011;2524;54.364;10.072;2024-03-29T03:49:30;3.13;;;1.87;;
5010;SDS011;2524;54.364;10.072;2024-03-29T03:51:56;1.60;;;1.50;;
5010;SDS011;2524;54.364;10.072;2024-03-29T03:54:22;2.00;;;1.57;;
5010;SDS011;2524;54.364;10.072;2024-03-29T03:56:48;2.10;;;1.90;;
5010;SDS011;2524;54.364;10.072;2024-03-29T03:59:14;2.93;;;1.70;;
5010;SDS011;2524;54.364;10.072;2024-03-29T04:01:40;1.60;;;1.50;;
5010;SDS011;2524;54.364;10.072;2024-03-29T04:04:06;2.10;;;1.60;;
5010;SDS011;2524;54.364;10.072;2024-03-29T04:06:33;2.13;;;1.50;;
5010;SDS011;2524;54.364;10.072;2024-03-29T04:08:58;3.07;;;1.27;;
5010;SDS011;2524;54.364;10.072;2024-03-29T04:11:24;1.43;;;1.30;;
5010;SDS011;2524;54.364;10.072;2024-03-29T04:13:52;2.03;;;1.70;;
5010;SDS011;2524;54.364;10.072;2024-03-29T04:16:18;1.50;;;1.40;;
5010;SDS011;2524;54.364;10.072;2024-03-29T04:18:44;1.43;;;1.37;;
5010;SDS011;2524;54.364;10.072;2024-03-29T04:21:10;2.20;;;1.50;;
5010;SDS011;2524;54.364;10.072;2024-03-29T04:23:36;1.97;;;1.20;;
5010;SDS011;2524;54.364;10.072;2024-03-29T04:26:02;2.33;;;1.43;;
5010;SDS011;2524;54.364;10.072;2024-03-29T04:28:28;3.87;;;1.60;;
5010;SDS011;2524;54.364;10.072;2024-03-29T04:30:55;1.60;;;1.50;;
5010;SDS011;2524;54.364;10.072;2024-03-29T04:33:21;2.63;;;1.90;;
5010;SDS011;2524;54.364;10.072;2024-03-29T04:36:05;4.33;;;1.60;;
5010;SDS011;2524;54.364;10.072;2024-03-29T04:38:31;1.60;;;1.27;;
5010;SDS011;2524;54.364;10.072;2024-03-29T04:40:57;1.83;;;1.17;;
5010;SDS011;2524;54.364;10.072;2024-03-29T04:43:24;1.17;;;1.17;;
5010;SDS011;2524;54.364;10.072;2024-03-29T04:45:50;1.30;;;1.20;;
5010;SDS011;2524;54.364;10.072;2024-03-29T04:48:26;1.73;;;1.47;;
5010;SDS011;2524;54.364;10.072;2024-03-29T04:50:52;1.63;;;1.50;;
5010;SDS011;2524;54.364;10.072;2024-03-29T04:53:18;2.10;;;1.40;;
5010;SDS011;2524;54.364;10.072;2024-03-29T04:55:44;1.47;;;1.13;;
5010;SDS011;2524;54.364;10.072;2024-03-29T04:58:12;1.40;;;1.30;;
5010;SDS011;2524;54.364;10.072;2024-03-29T05:00:42;2.80;;;1.30;;
5010;SDS011;2524;54.364;10.072;2024-03-29T05:03:08;1.70;;;1.60;;
5010;SDS011;2524;54.364;10.072;2024-03-29T05:05:34;1.80;;;1.30;;
5010;SDS011;2524;54.364;10.072;2024-03-29T05:08:00;3.63;;;1.57;;
5010;SDS011;2524;54.364;10.072;2024-03-29T05:10:26;2.70;;;1.47;;
5010;SDS011;2524;54.364;10.072;2024-03-29T05:12:52;1.17;;;1.10;;
5010;SDS011;2524;54.364;10.072;2024-03-29T05:15:19;3.27;;;1.63;;
5010;SDS011;2524;54.364;10.072;2024-03-29T05:17:45;1.30;;;1.20;;
5010;SDS011;2524;54.364;10.072;2024-03-29T05:20:11;1.57;;;1.47;;
5010;SDS011;2524;54.364;10.072;2024-03-29T05:22:37;2.80;;;1.50;;
5010;SDS011;2524;54.364;10.072;2024-03-29T05:25:03;1.67;;;1.57;;
5010;SDS011;2524;54.364;10.072;2024-03-29T05:27:29;2.23;;;1.20;;
5010;SDS011;2524;54.364;10.072;2024-03-29T05:29:55;2.03;;;1.53;;
5010;SDS011;2524;54.364;10.072;2024-03-29T05:32:21;2.03;;;1.50;;
5010;SDS011;2524;54.364;10.072;2024-03-29T05:34:48;2.33;;;1.27;;
5010;SDS011;2524;54.364;10.072;2024-03-29T05:37:14;2.93;;;1.50;;
5010;SDS011;2524;54.364;10.072;2024-03-29T05:39:42;2.33;;;1.30;;
5010;SDS011;2524;54.364;10.072;2024-03-29T05:42:08;1.63;;;1.43;;
5010;SDS011;2524;54.364;10.072;2024-03-29T05:44:35;1.70;;;1.20;;
5010;SDS011;2524;54.364;10.072;2024-03-29T05:47:04;7.77;;;1.60;;
5010;SDS011;2524;54.364;10.072;2024-03-29T05:49:30;1.50;;;1.40;;
5010;SDS011;2524;54.364;10.072;2024-03-29T05:51:56;2.20;;;1.33;;
5010;SDS011;2524;54.364;10.072;2024-03-29T05:54:22;3.47;;;1.50;;
5010;SDS011;2524;54.364;10.072;2024-03-29T05:56:49;1.57;;;1.47;;
5010;SDS011;2524;54.364;10.072;2024-03-29T05:59:15;1.70;;;1.23;;
5010;SDS011;2524;54.364;10.072;2024-03-29T06:01:41;1.27;;;1.17;;
5010;SDS011;2524;54.364;10.072;2024-03-29T06:04:07;1.60;;;1.40;;
5010;SDS011;2524;54.364;10.072;2024-03-29T06:06:40;1.00;;;1.00;;
5010;SDS011;2524;54.364;10.072;2024-03-29T06:09:06;6.17;;;1.47;;
5010;SDS011;2524;54.364;10.072;2024-03-29T06:11:32;3.53;;;2.00;;
5010;SDS011;2524;54.364;10.072;2024-03-29T06:13:58;2.03;;;1.50;;
5010;SDS011;2524;54.364;10.072;2024-03-29T06:16:25;1.93;;;1.47;;
5010;SDS011;2524;54.364;10.072;2024-03-29T06:19:10;3.03;;;0.90;;
5010;SDS011;2524;54.364;10.072;2024-03-29T06:21:36;1.70;;;1.60;;
5010;SDS011;2524;54.364;10.072;2024-03-29T06:24:06;1.33;;;1.23;;
5010;SDS011;2524;54.364;10.072;2024-03-29T06:26:32;1.67;;;1.10;;
5010;SDS011;2524;54.364;10.072;2024-03-29T06:28:58;2.60;;;1.20;;
5010;SDS011;2524;54.364;10.072;2024-03-29T06:31:24;1.53;;;1.30;;
5010;SDS011;2524;54.364;10.072;2024-03-29T06:33:50;1.43;;;1.33;;
5010;SDS011;2524;54.364;10.072;2024-03-29T06:36:16;2.43;;;1.03;;
5010;SDS011;2524;54.364;10.072;2024-03-29T06:38:42;8.57;;;1.43;;
5010;SDS011;2524;54.364;10.072;2024-03-29T06:41:08;1.70;;;1.20;;
5010;SDS011;2524;54.364;10.072;2024-03-29T06:43:34;1.73;;;1.00;;
5010;SDS011;2524;54.364;10.072;2024-03-29T06:46:00;1.10;;;1.10;;
5010;SDS011;2524;54.364;10.072;2024-03-29T06:48:28;3.17;;;1.57;;
5010;SDS011;2524;54.364;10.072;2024-03-29T06:50:55;2.50;;;1.30;;
5010;SDS011;2524;54.364;10.072;2024-03-29T06:53:21;2.43;;;1.80;;
5010;SDS011;2524;54.364;10.072;2024-03-29T06:55:47;3.90;;;1.43;;
5010;SDS011;2524;54.364;10.072;2024-03-29T06:58:14;1.80;;;0.90;;
5010;SDS011;2524;54.364;10.072;2024-03-29T07:00:41;2.30;;;1.40;;
5010;SDS011;2524;54.364;10.072;2024-03-29T07:03:07;2.27;;;1.30;;
5010;SDS011;2524;54.364;10.072;2024-03-29T07:05:33;2.83;;;1.40;;
5010;SDS011;2524;54.364;10.072;2024-03-29T07:07:59;5.00;;;1.87;;
5010;SDS011;2524;54.364;10.072;2024-03-29T07:10:26;2.40;;;1.47;;
5010;SDS011;2524;54.364;10.072;2024-03-29T07:12:52;2.63;;;1.43;;
5010;SDS011;2524;54.364;10.072;2024-03-29T07:15:18;3.03;;;1.70;;
5010;SDS011;2524;54.364;10.072;2024-03-29T07:17:44;2.07;;;1.20;;
5010;SDS011;2524;54.364;10.072;2024-03-29T07:20:10;2.20;;;1.53;;
5010;SDS011;2524;54.364;10.072;2024-03-29T07:22:36;1.30;;;1.30;;
5010;SDS011;2524;54.364;10.072;2024-03-29T07:25:02;5.63;;;1.53;;
5010;SDS011;2524;54.364;10.072;2024-03-29T07:27:28;2.10;;;1.57;;
5010;SDS011;2524;54.364;10.072;2024-03-29T07:29:57;1.40;;;1.30;;
5010;SDS011;2524;54.364;10.072;2024-03-29T07:32:25;1.40;;;1.30;;
5010;SDS011;2524;54.364;10.072;2024-03-29T07:34:51;1.67;;;1.23;;
5010;SDS011;2524;54.364;10.072;2024-03-29T07:37:17;2.93;;;1.20;;
5010;SDS011;2524;54.364;10.072;2024-03-29T07:39:43;1.20;;;1.10;;
5010;SDS011;2524;54.364;10.072;2024-03-29T07:42:09;1.73;;;1.40;;
5010;SDS011;2524;54.364;10.072;2024-03-29T07:44:35;4.67;;;1.77;;
5010;SDS011;2524;54.364;10.072;2024-03-29T07:47:01;2.00;;;1.10;;
5010;SDS011;2524;54.364;10.072;2024-03-29T07:49:27;1.10;;;1.00;;
5010;SDS011;2524;54.364;10.072;2024-03-29T07:51:53;1.53;;;1.00;;
5010;SDS011;2524;54.364;10.072;2024-03-29T07:54:19;1.20;;;1.10;;
5010;SDS011;2524;54.364;10.072;2024-03-29T07:56:45;1.70;;;1.30;;
5010;SDS011;2524;54.364;10.072;2024-03-29T07:59:11;4.90;;;1.33;;
5010;SDS011;2524;54.364;10.072;2024-03-29T08:01:37;1.13;;;1.07;;
5010;SDS011;2524;54.364;10.072;2024-03-29T08:04:03;2.13;;;1.30;;
5010;SDS011;2524;54.364;10.072;2024-03-29T08:06:29;1.70;;;1.07;;
5010;SDS011;2524;54.364;10.072;2024-03-29T08:08:55;1.43;;;0.87;;
5010;SDS011;2524;54.364;10.072;2024-03-29T08:11:21;2.30;;;0.93;;
5010;SDS011;2524;54.364;10.072;2024-03-29T08:13:47;3.10;;;1.67;;
5010;SDS011;2524;54.364;10.072;2024-03-29T08:16:13;1.23;;;1.13;;
5010;SDS011;2524;54.364;10.072;2024-03-29T08:18:41;1.30;;;1.20;;
5010;SDS011;2524;54.364;10.072;2024-03-29T08:21:07;1.80;;;1.30;;
5010;SDS011;2524;54.364;10.072;2024-03-29T08:23:37;1.33;;;1.20;;
5010;SDS011;2524;54.364;10.072;2024-03-29T08:26:03;1.60;;;1.30;;
5010;SDS011;2524;54.364;10.072;2024-03-29T08:28:29;4.00;;;1.70;;
5010;SDS011;2524;54.364;10.072;2024-03-29T08:31:03;1.37;;;1.20;;
5010;SDS011;2524;54.364;10.072;2024-03-29T08:33:31;1.60;;;1.50;;
5010;SDS011;2524;54.364;10.072;2024-03-29T08:35:57;1.17;;;1.10;;
5010;SDS011;2524;54.364;10.072;2024-03-29T08:38:23;2.00;;;1.20;;
5010;SDS011;2524;54.364;10.072;2024-03-29T08:40:49;7.50;;;1.80;;
5010;SDS011;2524;54.364;10.072;2024-03-29T08:43:15;3.87;;;1.70;;
5010;SDS011;2524;54.364;10.072;2024-03-29T08:45:43;4.90;;;1.50;;
5010;SDS011;2524;54.364;10.072;2024-03-29T08:48:09;3.07;;;1.30;;
5010;SDS011;2524;54.364;10.072;2024-03-29T08:50:35;1.90;;;1.10;;
5010;SDS011;2524;54.364;10.072;2024-03-29T08:53:01;1.80;;;1.47;;
5010;SDS011;2524;54.364;10.072;2024-03-29T08:55:28;1.50;;;1.10;;
5010;SDS011;2524;54.364;10.072;2024-03-29T08:57:54;1.73;;;1.43;;
5010;SDS011;2524;54.364;10.072;2024-03-29T09:00:20;3.87;;;1.17;;
5010;SDS011;2524;54.364;10.072;2024-03-29T09:02:46;1.80;;;1.30;;
5010;SDS011;2524;54.364;10.072;2024-03-29T09:05:12;2.10;;;1.37;;
5010;SDS011;2524;54.364;10.072;2024-03-29T09:07:38;1.30;;;1.20;;
5010;SDS011;2524;54.364;10.072;2024-03-29T09:10:06;1.40;;;1.30;;
5010;SDS011;2524;54.364;10.072;2024-03-29T09:12:32;1.37;;;1.20;;
5010;SDS011;2524;54.364;10.072;2024-03-29T09:14:58;1.37;;;1.20;;
5010;SDS011;2524;54.364;10.072;2024-03-29T09:17:24;1.00;;;1.00;;
5010;SDS011;2524;54.364;10.072;2024-03-29T09:19:50;1.00;;;1.00;;
5010;SDS011;2524;54.364;10.072;2024-03-29T09:22:17;1.03;;;1.03;;
5010;SDS011;2524;54.364;10.072;2024-03-29T09:24:43;1.37;;;1.27;;
5010;SDS011;2524;54.364;10.072;2024-03-29T09:27:09;6.53;;;1.40;;
5010;SDS011;2524;54.364;10.072;2024-03-29T09:29:35;2.57;;;1.20;;
5010;SDS011;2524;54.364;10.072;2024-03-29T09:32:01;0.90;;;0.90;;
5010;SDS011;2524;54.364;10.072;2024-03-29T09:34:30;1.73;;;1.30;;
5010;SDS011;2524;54.364;10.072;2024-03-29T09:36:56;1.80;;;1.40;;
5010;SDS011;2524;54.364;10.072;2024-03-29T09:39:22;2.00;;;1.40;;
5010;SDS011;2524;54.364;10.072;2024-03-29T09:41:48;2.27;;;1.70;;
5010;SDS011;2524;54.364;10.072;2024-03-29T09:44:15;1.77;;;1.63;;
5010;SDS011;2524;54.364;10.072;2024-03-29T09:46:42;3.50;;;1.40;;
5010;SDS011;2524;54.364;10.072;2024-03-29T09:49:08;1.23;;;1.00;;
5010;SDS011;2524;54.364;10.072;2024-03-29T09:51:38;2.33;;;1.20;;
5010;SDS011;2524;54.364;10.072;2024-03-29T09:54:05;2.30;;;1.20;;
5010;SDS011;2524;54.364;10.072;2024-03-29T09:56:33;0.80;;;0.70;;
5010;SDS011;2524;54.364;10.072;2024-03-29T09:58:59;1.47;;;1.20;;
5010;SDS011;2524;54.364;10.072;2024-03-29T10:01:26;1.57;;;1.33;;
5010;SDS011;2524;54.364;10.072;2024-03-29T10:03:53;1.47;;;1.27;;
5010;SDS011;2524;54.364;10.072;2024-03-29T10:06:19;4.00;;;1.30;;
5010;SDS011;2524;54.364;10.072;2024-03-29T10:08:45;1.33;;;1.07;;
5010;SDS011;2524;54.364;10.072;2024-03-29T10:11:12;0.90;;;0.90;;
5010;SDS011;2524;54.364;10.072;2024-03-29T10:13:41;1.20;;;1.20;;
5010;SDS011;2524;54.364;10.072;2024-03-29T10:16:10;2.47;;;1.53;;
5010;SDS011;2524;54.364;10.072;2024-03-29T10:18:37;1.00;;;0.90;;
5010;SDS011;2524;54.364;10.072;2024-03-29T10:21:04;1.63;;;1.30;;
5010;SDS011;2524;54.364;10.072;2024-03-29T10:23:30;1.83;;;1.70;;
5010;SDS011;2524;54.364;10.072;2024-03-29T10:25:57;1.33;;;1.23;;
5010;SDS011;2524;54.364;10.072;2024-03-29T10:28:23;1.10;;;1.10;;
5010;SDS011;2524;54.364;10.072;2024-03-29T10:30:49;1.30;;;1.20;;
5010;SDS011;2524;54.364;10.072;2024-03-29T10:33:16;1.17;;;1.07;;
5010;SDS011;2524;54.364;10.072;2024-03-29T10:35:42;1.00;;;1.00;;
5010;SDS011;2524;54.364;10.072;2024-03-29T10:38:12;2.00;;;1.43;;
5010;SDS011;2524;54.364;10.072;2024-03-29T10:40:38;1.20;;;1.10;;
5010;SDS011;2524;54.364;10.072;2024-03-29T10:43:06;1.60;;;1.50;;
5010;SDS011;2524;54.364;10.072;2024-03-29T10:45:37;3.43;;;1.50;;
5010;SDS011;2524;54.364;10.072;2024-03-29T10:48:03;1.03;;;1.03;;
5010;SDS011;2524;54.364;10.072;2024-03-29T10:50:34;0.93;;;0.93;;
5010;SDS011;2524;54.364;10.072;2024-03-29T10:53:00;0.90;;;0.90;;
5010;SDS011;2524;54.364;10.072;2024-03-29T10:55:27;2.20;;;1.00;;
5010;SDS011;2524;54.364;10.072;2024-03-29T10:57:56;1.80;;;0.77;;
5010;SDS011;2524;54.364;10.072;2024-03-29T11:00:23;0.90;;;0.90;;
5010;SDS011;2524;54.364;10.072;2024-03-29T11:05:32;2.10;;;1.10;;
5010;SDS011;2524;54.364;10.072;2024-03-29T11:07:58;1.23;;;1.13;;
5010;SDS011;2524;54.364;10.072;2024-03-29T11:10:34;0.80;;;0.80;;
5010;SDS011;2524;54.364;10.072;2024-03-29T11:15:46;0.90;;;0.80;;
5010;SDS011;2524;54.364;10.072;2024-03-29T11:18:13;1.27;;;0.90;;
5010;SDS011;2524;54.364;10.072;2024-03-29T11:20:42;1.10;;;1.00;;
5010;SDS011;2524;54.364;10.072;2024-03-29T11:23:12;1.37;;;0.90;;
5010;SDS011;2524;54.364;10.072;2024-03-29T11:25:40;1.10;;;0.90;;
5010;SDS011;2524;54.364;10.072;2024-03-29T11:28:07;1.40;;;1.30;;
5010;SDS011;2524;54.364;10.072;2024-03-29T11:30:41;1.60;;;1.50;;
5010;SDS011;2524;54.364;10.072;2024-03-29T11:33:07;2.20;;;2.00;;
5010;SDS011;2524;54.364;10.072;2024-03-29T11:35:38;2.73;;;1.60;;
5010;SDS011;2524;54.364;10.072;2024-03-29T11:38:04;1.43;;;1.40;;
5010;SDS011;2524;54.364;10.072;2024-03-29T11:40:30;1.63;;;1.30;;
5010;SDS011;2524;54.364;10.072;2024-03-29T11:42:56;1.77;;;1.67;;
5010;SDS011;2524;54.364;10.072;2024-03-29T11:45:24;1.37;;;1.27;;
5010;SDS011;2524;54.364;10.072;2024-03-29T11:47:55;1.33;;;1.23;;
5010;SDS011;2524;54.364;10.072;2024-03-29T11:50:23;1.97;;;1.10;;
5010;SDS011;2524;54.364;10.072;2024-03-29T11:52:49;1.30;;;1.20;;
5010;SDS011;2524;54.364;10.072;2024-03-29T11:55:15;2.00;;;1.20;;
5010;SDS011;2524;54.364;10.072;2024-03-29T11:57:41;1.93;;;1.50;;
5010;SDS011;2524;54.364;10.072;2024-03-29T12:00:07;1.70;;;1.43;;
5010;SDS011;2524;54.364;10.072;2024-03-29T12:02:34;2.60;;;1.50;;
5010;SDS011;2524;54.364;10.072;2024-03-29T12:05:05;1.30;;;1.30;;
5010;SDS011;2524;54.364;10.072;2024-03-29T12:07:31;1.63;;;1.40;;
5010;SDS011;2524;54.364;10.072;2024-03-29T12:09:57;2.20;;;1.63;;
5010;SDS011;2524;54.364;10.072;2024-03-29T12:12:23;1.47;;;1.37;;
5010;SDS011;2524;54.364;10.072;2024-03-29T12:14:49;1.10;;;1.10;;
5010;SDS011;2524;54.364;10.072;2024-03-29T12:17:16;1.30;;;1.20;;
5010;SDS011;2524;54.364;10.072;2024-03-29T12:19:42;1.23;;;1.23;;
5010;SDS011;2524;54.364;10.072;2024-03-29T12:22:09;1.13;;;1.00;;
5010;SDS011;2524;54.364;10.072;2024-03-29T12:24:35;2.10;;;1.20;;
5010;SDS011;2524;54.364;10.072;2024-03-29T12:27:01;1.33;;;1.10;;
5010;SDS011;2524;54.364;10.072;2024-03-29T12:29:28;1.23;;;1.07;;
5010;SDS011;2524;54.364;10.072;2024-03-29T12:32:00;1.07;;;1.00;;
5010;SDS011;2524;54.364;10.072;2024-03-29T12:34:26;1.40;;;1.30;;
5010;SDS011;2524;54.364;10.072;2024-03-29T12:36:52;1.57;;;1.27;;
5010;SDS011;2524;54.364;10.072;2024-03-29T12:39:18;0.90;;;0.90;;
5010;SDS011;2524;54.364;10.072;2024-03-29T12:41:46;1.60;;;1.20;;
5010;SDS011;2524;54.364;10.072;2024-03-29T12:44:12;1.07;;;1.07;;
5010;SDS011;2524;54.364;10.072;2024-03-29T12:46:38;1.00;;;1.00;;
5010;SDS011;2524;54.364;10.072;2024-03-29T12:49:04;1.10;;;1.00;;
5010;SDS011;2524;54.364;10.072;2024-03-29T12:51:30;1.77;;;1.27;;
5010;SDS011;2524;54.364;10.072;2024-03-29T12:54:01;1.37;;;1.37;;
5010;SDS011;2524;54.364;10.072;2024-03-29T12:56:28;1.30;;;1.20;;
5010;SDS011;2524;54.364;10.072;2024-03-29T12:58:54;1.53;;;1.20;;
5010;SDS011;2524;54.364;10.072;2024-03-29T13:01:21;1.20;;;1.20;;
5010;SDS011;2524;54.364;10.072;2024-03-29T13:03:47;1.87;;;1.53;;
5010;SDS011;2524;54.364;10.072;2024-03-29T13:06:13;1.30;;;1.30;;
5010;SDS011;2524;54.364;10.072;2024-03-29T13:08:39;1.80;;;1.30;;
5010;SDS011;2524;54.364;10.072;2024-03-29T13:11:05;6.87;;;1.77;;
5010;SDS011;2524;54.364;10.072;2024-03-29T13:13:32;1.60;;;1.20;;
5010;SDS011;2524;54.364;10.072;2024-03-29T13:15:58;1.23;;;1.17;;
5010;SDS011;2524;54.364;10.072;2024-03-29T13:18:24;1.13;;;1.10;;
5010;SDS011;2524;54.364;10.072;2024-03-29T13:20:50;1.50;;;1.40;;
5010;SDS011;2524;54.364;10.072;2024-03-29T13:23:16;1.20;;;1.17;;
5010;SDS011;2524;54.364;10.072;2024-03-29T13:25:42;3.50;;;1.40;;
5010;SDS011;2524;54.364;10.072;2024-03-29T13:28:08;1.50;;;1.50;;
5010;SDS011;2524;54.364;10.072;2024-03-29T13:30:35;1.30;;;1.30;;
5010;SDS011;2524;54.364;10.072;2024-03-29T13:33:08;1.20;;;1.20;;
5010;SDS011;2524;54.364;10.072;2024-03-29T13:35:35;2.97;;;2.27;;
5010;SDS011;2524;54.364;10.072;2024-03-29T13:38:01;2.20;;;2.00;;
5010;SDS011;2524;54.364;10.072;2024-03-29T13:40:27;1.47;;;1.40;;
5010;SDS011;2524;54.364;10.072;2024-03-29T13:42:54;1.70;;;1.60;;
5010;SDS011;2524;54.364;10.072;2024-03-29T13:45:20;2.10;;;1.63;;
5010;SDS011;2524;54.364;10.072;2024-03-29T13:47:46;1.50;;;1.40;;
5010;SDS011;2524;54.364;10.072;2024-03-29T13:50:12;2.97;;;1.90;;
5010;SDS011;2524;54.364;10.072;2024-03-29T13:52:40;1.50;;;1.50;;
5010;SDS011;2524;54.364;10.072;2024-03-29T13:55:06;1.50;;;1.50;;
5010;SDS011;2524;54.364;10.072;2024-03-29T13:57:33;1.70;;;1.60;;
5010;SDS011;2524;54.364;10.072;2024-03-29T13:59:59;1.60;;;1.50;;
5010;SDS011;2524;54.364;10.072;2024-03-29T14:02:25;2.17;;;1.60;;
5010;SDS011;2524;54.364;10.072;2024-03-29T14:04:52;1.50;;;1.40;;
5010;SDS011;2524;54.364;10.072;2024-03-29T14:07:18;1.30;;;1.30;;
5010;SDS011;2524;54.364;10.072;2024-03-29T14:09:44;1.40;;;1.40;;
5010;SDS011;2524;54.364;10.072;2024-03-29T14:12:10;1.40;;;1.40;;
5010;SDS011;2524;54.364;10.072;2024-03-29T14:14:37;1.33;;;1.23;;
5010;SDS011;2524;54.364;10.072;2024-03-29T14:17:03;1.20;;;1.10;;
5010;SDS011;2524;54.364;10.072;2024-03-29T14:19:31;1.30;;;1.30;;
5010;SDS011;2524;54.364;10.072;2024-03-29T14:21:58;1.70;;;1.30;;
5010;SDS011;2524;54.364;10.072;2024-03-29T14:24:24;1.60;;;1.50;;
5010;SDS011;2524;54.364;10.072;2024-03-29T14:26:53;1.40;;;1.40;;
5010;SDS011;2524;54.364;10.072;2024-03-29T14:29:20;2.57;;;1.70;;
5010;SDS011;2524;54.364;10.072;2024-03-29T14:31:49;1.90;;;1.80;;
5010;SDS011;2524;54.364;10.072;2024-03-29T14:34:16;1.67;;;1.57;;
5010;SDS011;2524;54.364;10.072;2024-03-29T14:36:42;2.83;;;1.60;;
5010;SDS011;2524;54.364;10.072;2024-03-29T14:39:08;1.57;;;1.47;;
5010;SDS011;2524;54.364;10.072;2024-03-29T14:41:37;1.93;;;1.70;;
5010;SDS011;2524;54.364;10.072;2024-03-29T14:44:04;1.80;;;1.33;;
5010;SDS011;2524;54.364;10.072;2024-03-29T14:46:30;1.40;;;1.30;;
5010;SDS011;2524;54.364;10.072;2024-03-29T14:48:56;3.07;;;1.57;;
5010;SDS011;2524;54.364;10.072;2024-03-29T14:51:22;1.20;;;1.20;;
5010;SDS011;2524;54.364;10.072;2024-03-29T14:53:48;2.70;;;1.67;;
5010;SDS011;2524;54.364;10.072;2024-03-29T14:56:15;1.07;;;1.03;;
5010;SDS011;2524;54.364;10.072;2024-03-29T14:58:41;0.90;;;0.90;;
5010;SDS011;2524;54.364;10.072;2024-03-29T15:01:07;2.10;;;1.50;;
5010;SDS011;2524;54.364;10.072;2024-03-29T15:03:34;1.47;;;1.47;;